Terminal Aerodrome Forecast
Issued by NWS

Current Version | Previous Version | Text Only | Print | Product List | Glossary Off
Versions: 1 2 3 4 5 6 7 8 9 10 11 12 13 14

000
FTUS41 KILN 171100
TAFLCK
TAF
KLCK 171130Z 1712/1812 13006KT P6SM BKN250
     FM171400 18010KT P6SM BKN250
     FM180000 16006KT P6SM BKN200
     FM180800 17008KT P6SM BKN050=

USA.gov is the U.S. government's official web portal to all federal, state and local government web resources and services.